Olib — 9AA6266 — position and weather

sailwx.info

Track history (hours):
 
Tides and Currents Weather Stations Pressure Air Temp Water Temp Dewpoint Dewpoint Depression Visibility Wind Speed Wind Dir Waves Ship Positions

Olib

Last reported at 2017-Mar-22 23:31 UTC. Time now 2017-Mar-23 00:22 UTC.
Position N 59°55' E 028°37'.

Length 247 m; draft 8.4 m.

Type: Ship. MMSI: 238252000.

Date/timePositionNaut miles runAvg speedWind from/ knotsBaromVisibWave heightAir tempDewpointWater temp
2017-Mar-22 23:31N 59°55' E 028°37'0 0.0
2017-Mar-22 22:31N 59°55' E 028°37'0 0.0
2017-Mar-22 21:31N 59°55' E 028°37'0 0.0
2017-Mar-22 20:28N 59°55' E 028°37'0 0.0
2017-Mar-22 19:31N 59°55' E 028°37'0 0.0
2017-Mar-22 18:31N 59°55' E 028°37'0 0.0
2017-Mar-22 17:31N 59°55' E 028°37'0 0.1
2017-Mar-22 16:26N 59°55' E 028°37'3 3.1
2017-Mar-22 15:33N 59°58' E 028°36'7 7.2
2017-Mar-22 14:31N 60°03' E 028°25'1212.0
2017-Mar-22 13:33N 60°09' E 028°05'1211.5
2017-Mar-22 12:29N 60°09' E 027°40'20 1.2
2017-Mar-21 19:32N 60°02' E 027°03'0 0.0
2017-Mar-21 17:32N 60°02' E 027°03'0 0.1
2017-Mar-21 16:23N 60°02' E 027°03'0 0.0
2017-Mar-21 13:11N 60°02' E 027°03'0 0.0
2017-Mar-20 12:20N 60°02' E 027°03'41910.8
2017-Mar-18 21:33N 55°46' E 016°38'1212.2
2017-Mar-18 20:34N 55°44' E 016°16'1212.2
2017-Mar-18 19:33N 55°41' E 015°55'1212.0
2017-Mar-18 18:34N 55°38' E 015°35'1212.0
2017-Mar-18 17:34N 55°33' E 015°15'1212.1
2017-Mar-18 16:34N 55°28' E 014°56'1211.7
2017-Mar-18 15:33N 55°22' E 014°38'1111.5
2017-Mar-18 14:34N 55°14' E 014°25'1110.9
2017-Mar-18 13:32N 55°05' E 014°13'1211.4
2017-Mar-18 12:31N 54°59' E 013°55'3612.3
2017-Mar-18 09:34N 54°47' E 012°56'1313.2
2017-Mar-18 08:34N 54°41' E 012°35'1212.2
2017-Mar-18 07:33N 54°35' E 012°17'1211.5
2017-Mar-18 06:33N 54°25' E 012°07'1313.1
2017-Mar-18 05:34N 54°26' E 011°44'1313.3
2017-Mar-18 04:33N 54°31' E 011°24'1413.7
2017-Mar-18 03:33N 54°38' E 011°03'1111.3
2017-Mar-18 02:33N 54°47' E 010°52'1212.3
2017-Mar-18 01:33N 54°59' E 010°60'13010.8
2017-Mar-17 13:33N 57°07' E 011°38'1212.3
2017-Mar-17 12:33N 57°19' E 011°30'1312.6
2017-Mar-17 11:32N 57°30' E 011°19'1212.5
2017-Mar-17 10:33N 57°28' E 010°57'  
Track history (hours):
 
Tides and Currents Weather Stations Pressure Air Temp Water Temp Dewpoint Dewpoint Depression Visibility Wind Speed Wind Dir Waves Ship Positions

Olib

Last reported at 2017-Mar-22 23:31 UTC. Time now 2017-Mar-23 00:22 UTC.
Position N 59°55' E 028°37'.

Length 247 m; draft 8.4 m.

Type: Ship. MMSI: 238252000.

Date/timePositionNaut miles runAvg speedWind from/ knotsBaromVisibWave heightAir tempDewpointWater temp
2017-Mar-22 23:31N 59°55' E 028°37'0 0.0
2017-Mar-22 22:31N 59°55' E 028°37'0 0.0
2017-Mar-22 21:31N 59°55' E 028°37'0 0.0
2017-Mar-22 20:28N 59°55' E 028°37'0 0.0
2017-Mar-22 19:31N 59°55' E 028°37'0 0.0
2017-Mar-22 18:31N 59°55' E 028°37'0 0.0
2017-Mar-22 17:31N 59°55' E 028°37'0 0.1
2017-Mar-22 16:26N 59°55' E 028°37'3 3.1
2017-Mar-22 15:33N 59°58' E 028°36'7 7.2
2017-Mar-22 14:31N 60°03' E 028°25'1212.0
2017-Mar-22 13:33N 60°09' E 028°05'1211.5
2017-Mar-22 12:29N 60°09' E 027°40'20 1.2
2017-Mar-21 19:32N 60°02' E 027°03'0 0.0
2017-Mar-21 17:32N 60°02' E 027°03'0 0.1
2017-Mar-21 16:23N 60°02' E 027°03'0 0.0
2017-Mar-21 13:11N 60°02' E 027°03'0 0.0
2017-Mar-20 12:20N 60°02' E 027°03'41910.8
2017-Mar-18 21:33N 55°46' E 016°38'1212.2
2017-Mar-18 20:34N 55°44' E 016°16'1212.2
2017-Mar-18 19:33N 55°41' E 015°55'1212.0
2017-Mar-18 18:34N 55°38' E 015°35'1212.0
2017-Mar-18 17:34N 55°33' E 015°15'1212.1
2017-Mar-18 16:34N 55°28' E 014°56'1211.7
2017-Mar-18 15:33N 55°22' E 014°38'1111.5
2017-Mar-18 14:34N 55°14' E 014°25'1110.9
2017-Mar-18 13:32N 55°05' E 014°13'1211.4
2017-Mar-18 12:31N 54°59' E 013°55'3612.3
2017-Mar-18 09:34N 54°47' E 012°56'1313.2
2017-Mar-18 08:34N 54°41' E 012°35'1212.2
2017-Mar-18 07:33N 54°35' E 012°17'1211.5
2017-Mar-18 06:33N 54°25' E 012°07'1313.1
2017-Mar-18 05:34N 54°26' E 011°44'1313.3
2017-Mar-18 04:33N 54°31' E 011°24'1413.7
2017-Mar-18 03:33N 54°38' E 011°03'1111.3
2017-Mar-18 02:33N 54°47' E 010°52'1212.3
2017-Mar-18 01:33N 54°59' E 010°60'13010.8
2017-Mar-17 13:33N 57°07' E 011°38'1212.3
2017-Mar-17 12:33N 57°19' E 011°30'1312.6
2017-Mar-17 11:32N 57°30' E 011°19'1212.5
2017-Mar-17 10:33N 57°28' E 010°57'  

Dump ship's entire track history